createdAt,value
2022-11-07T00:00:43.799Z,22.63
2022-11-07T00:03:15.727Z,15.53
2022-11-07T00:05:43.946Z,24.40
2022-11-07T00:08:11.815Z,42.80
2022-11-07T00:10:39.732Z,36.03
2022-11-07T00:13:07.663Z,25.27
2022-11-07T00:15:35.551Z,29.27
2022-11-07T00:18:03.466Z,30.27
2022-11-07T00:20:32.747Z,20.73
2022-11-07T00:23:00.763Z,26.00
2022-11-07T00:25:28.622Z,25.70
2022-11-07T00:27:56.471Z,28.90
2022-11-07T00:30:24.796Z,27.23
2022-11-07T00:32:56.391Z,24.57
2022-11-07T00:35:27.857Z,28.20
2022-11-07T00:37:57.159Z,23.50
2022-11-07T00:40:25.048Z,27.70
2022-11-07T00:42:52.919Z,36.03
2022-11-07T00:45:20.866Z,31.80
2022-11-07T00:47:48.715Z,27.83
2022-11-07T00:50:16.643Z,37.63
2022-11-07T00:52:44.523Z,15.00
2022-11-07T00:55:13.797Z,30.00
2022-11-07T00:57:41.647Z,31.20
2022-11-07T01:00:11.109Z,24.27
2022-11-07T01:02:39.125Z,30.13
2022-11-07T01:05:15.386Z,33.60
2022-11-07T01:07:43.245Z,34.87
2022-11-07T01:10:11.128Z,33.40
2022-11-07T01:12:40.375Z,31.93
2022-11-07T01:15:09.150Z,25.13
2022-11-07T01:17:37.006Z,21.90
2022-11-07T01:20:05.573Z,36.33
2022-11-07T01:22:33.627Z,39.10
2022-11-07T01:25:01.475Z,27.20
2022-11-07T01:27:29.348Z,27.73
2022-11-07T01:29:58.597Z,30.03
2022-11-07T01:32:26.504Z,32.17
2022-11-07T01:34:54.384Z,26.47
2022-11-07T01:37:22.256Z,26.70
2022-11-07T01:39:50.134Z,28.37
2022-11-07T01:42:18.024Z,46.40
2022-11-07T01:44:55.420Z,26.83
2022-11-07T01:47:25.475Z,33.60
2022-11-07T01:49:53.508Z,33.90
2022-11-07T01:52:22.663Z,33.43
2022-11-07T01:54:52.243Z,27.87
2022-11-07T01:57:21.519Z,32.93
2022-11-07T01:59:49.576Z,25.47
2022-11-07T02:02:17.525Z,28.67
2022-11-07T02:04:46.900Z,31.27
2022-11-07T02:07:16.810Z,19.67
2022-11-07T02:09:44.778Z,30.10
2022-11-07T02:12:12.686Z,27.60
2022-11-07T02:14:40.567Z,26.13
2022-11-07T02:17:08.522Z,31.97
2022-11-07T02:19:37.222Z,26.80
2022-11-07T02:22:10.010Z,29.17
2022-11-07T02:24:39.389Z,28.57
2022-11-07T02:27:08.560Z,22.03
2022-11-07T02:29:36.667Z,17.30
2022-11-07T02:32:04.779Z,23.37
2022-11-07T02:34:32.707Z,23.53
2022-11-07T02:37:00.582Z,21.23
2022-11-07T02:39:28.447Z,25.13
2022-11-07T02:41:57.760Z,22.00
2022-11-07T02:44:25.611Z,22.27
2022-11-07T02:46:53.482Z,20.33
2022-11-07T02:49:21.383Z,15.93
2022-11-07T02:51:49.296Z,24.73
2022-11-07T02:54:17.191Z,24.97
2022-11-07T02:56:45.066Z,17.27
2022-11-07T02:59:14.326Z,19.57
2022-11-07T03:01:42.321Z,16.67
2022-11-07T03:04:10.299Z,22.00
2022-11-07T03:06:38.216Z,21.67
2022-11-07T03:09:06.085Z,17.83
2022-11-07T03:11:33.976Z,15.77
2022-11-07T03:14:01.842Z,14.53
2022-11-07T03:16:31.266Z,23.47
2022-11-07T03:18:59.150Z,20.83
2022-11-07T03:21:27.040Z,19.83
2022-11-07T03:23:54.903Z,28.33
2022-11-07T03:26:22.806Z,23.33
2022-11-07T03:28:50.775Z,27.00
2022-11-07T03:31:18.636Z,19.23
2022-11-07T03:33:47.850Z,15.87
2022-11-07T03:36:15.763Z,22.07
2022-11-07T03:38:43.664Z,24.87
2022-11-07T03:41:17.081Z,24.20
2022-11-07T03:43:45.559Z,27.77
2022-11-07T03:46:13.445Z,30.10
2022-11-07T03:48:41.317Z,21.40
2022-11-07T03:51:10.882Z,19.27
2022-11-07T03:53:38.779Z,25.90
2022-11-07T03:56:07.489Z,24.13
2022-11-07T03:58:35.437Z,23.57
2022-11-07T04:01:03.296Z,26.07
2022-11-07T04:03:31.314Z,29.70
2022-11-07T04:05:59.245Z,22.23
2022-11-07T04:08:28.530Z,25.60
2022-11-07T04:10:56.411Z,23.43
2022-11-07T04:13:41.869Z,21.07
2022-11-07T04:16:23.918Z,32.03
2022-11-07T04:18:51.808Z,24.90
2022-11-07T04:21:19.684Z,17.70
2022-11-07T04:23:48.992Z,20.57
2022-11-07T04:26:34.339Z,30.10
2022-11-07T04:29:02.220Z,26.57
2022-11-07T04:31:30.075Z,18.70
2022-11-07T04:33:57.958Z,24.67
2022-11-07T04:36:25.887Z,22.67
2022-11-07T04:38:55.113Z,19.87
2022-11-07T04:41:23.783Z,24.23
2022-11-07T04:43:51.987Z,27.67
2022-11-07T04:46:20.218Z,23.00
2022-11-07T04:48:48.131Z,20.77
2022-11-07T04:51:16.279Z,19.83
2022-11-07T04:53:44.150Z,20.97
2022-11-07T04:56:13.373Z,16.50
2022-11-07T04:58:41.264Z,20.40
2022-11-07T05:01:09.158Z,27.30
2022-11-07T05:03:41.516Z,18.17
2022-11-07T05:06:11.604Z,23.17
2022-11-07T05:08:39.467Z,16.73
2022-11-07T05:11:07.343Z,22.47
2022-11-07T05:13:36.659Z,23.23
2022-11-07T05:16:04.794Z,13.03
2022-11-07T05:18:32.694Z,18.10
2022-11-07T05:21:00.587Z,18.10
2022-11-07T05:23:28.587Z,28.40
2022-11-07T05:25:56.907Z,24.50
2022-11-07T05:28:35.234Z,22.17
2022-11-07T05:31:06.746Z,29.30
2022-11-07T05:33:34.708Z,21.63
2022-11-07T05:36:20.767Z,22.43
2022-11-07T05:38:49.664Z,15.57
2022-11-07T05:41:18.056Z,21.57
2022-11-07T05:43:45.985Z,16.13
2022-11-07T05:46:15.299Z,26.73
2022-11-07T05:48:43.171Z,19.37
2022-11-07T05:51:11.069Z,18.40
2022-11-07T05:53:39.004Z,19.00
2022-11-07T05:56:07.530Z,20.17
2022-11-07T05:58:35.454Z,17.40
2022-11-07T06:01:03.461Z,12.83
2022-11-07T06:03:32.856Z,12.57
2022-11-07T06:06:00.850Z,15.43
2022-11-07T06:08:28.776Z,18.23
2022-11-07T06:10:56.662Z,18.00
2022-11-07T06:13:24.548Z,16.33
2022-11-07T06:15:52.455Z,23.43
2022-11-07T06:18:21.458Z,22.07
2022-11-07T06:20:50.680Z,15.40
2022-11-07T06:23:20.073Z,15.67
2022-11-07T06:25:48.175Z,16.50
2022-11-07T06:28:16.086Z,18.47
2022-11-07T06:30:43.999Z,17.60
2022-11-07T06:33:13.235Z,14.87
2022-11-07T06:35:41.450Z,12.07
2022-11-07T06:38:11.406Z,19.87
2022-11-07T06:40:39.394Z,13.57
2022-11-07T06:43:07.860Z,16.80
2022-11-07T06:45:35.947Z,15.10
2022-11-07T06:48:03.838Z,14.77
2022-11-07T06:50:31.778Z,10.00
2022-11-07T06:53:02.888Z,16.43
2022-11-07T06:55:32.133Z,18.73
2022-11-07T06:58:00.737Z,19.13
2022-11-07T07:00:28.865Z,18.43
2022-11-07T07:02:58.846Z,9.33
2022-11-07T07:05:27.036Z,18.47
2022-11-07T07:07:55.193Z,10.30
2022-11-07T07:10:24.841Z,9.87
2022-11-07T07:12:54.214Z,17.20
2022-11-07T07:15:22.134Z,18.47
2022-11-07T07:17:50.004Z,16.30
2022-11-07T07:20:17.925Z,17.50
2022-11-07T07:22:46.759Z,19.57
2022-11-07T07:25:17.181Z,15.87
2022-11-07T07:27:45.024Z,14.63
2022-11-07T07:30:15.135Z,22.37
2022-11-07T07:32:43.037Z,14.30
2022-11-07T07:35:10.989Z,13.37
2022-11-07T07:37:38.910Z,16.20
2022-11-07T07:40:07.895Z,16.23
2022-11-07T07:42:35.815Z,9.93
2022-11-07T07:45:03.798Z,10.93
2022-11-07T07:47:33.105Z,8.70
2022-11-07T07:50:01.017Z,14.37
2022-11-07T07:52:28.888Z,14.93
2022-11-07T07:54:57.003Z,11.33
2022-11-07T07:57:24.916Z,13.90
2022-11-07T07:59:52.886Z,14.20
2022-11-07T08:02:20.982Z,17.40
2022-11-07T08:04:50.284Z,15.27
2022-11-07T08:07:18.212Z,11.90
2022-11-07T08:09:46.241Z,16.50
2022-11-07T08:12:14.190Z,15.10
2022-11-07T08:14:42.529Z,11.73
2022-11-07T08:17:17.141Z,11.00
2022-11-07T08:19:48.337Z,20.03
2022-11-07T08:22:23.781Z,14.33
2022-11-07T08:24:52.271Z,25.53
2022-11-07T08:27:20.135Z,21.13
2022-11-07T08:29:49.291Z,15.70
2022-11-07T08:32:17.210Z,24.53
2022-11-07T08:34:45.085Z,22.67
2022-11-07T08:37:13.063Z,18.70
2022-11-07T08:39:42.356Z,14.93
2022-11-07T08:42:10.272Z,20.03
2022-11-07T08:44:38.204Z,15.50
2022-11-07T08:47:08.641Z,21.87
2022-11-07T08:49:36.674Z,14.47
2022-11-07T08:52:04.921Z,13.03
2022-11-07T08:54:33.698Z,19.77
2022-11-07T08:57:03.178Z,18.03
2022-11-07T08:59:31.140Z,17.33
2022-11-07T09:04:47.000Z,19.07
2022-11-07T09:07:14.955Z,21.17
2022-11-07T09:09:42.800Z,21.73
2022-11-07T09:12:12.016Z,21.50
2022-11-07T09:14:40.380Z,23.57
2022-11-07T09:17:08.334Z,17.80
2022-11-07T09:19:36.197Z,17.40
2022-11-07T09:22:04.071Z,21.80
2022-11-07T09:24:31.990Z,22.03
2022-11-07T09:26:59.877Z,19.93
2022-11-07T09:29:29.116Z,24.23
2022-11-07T09:31:57.059Z,18.53
2022-11-07T09:34:25.891Z,19.13
2022-11-07T09:36:53.756Z,26.63
2022-11-07T09:39:21.723Z,24.30
2022-11-07T09:41:55.585Z,21.77
2022-11-07T09:44:47.404Z,28.73
2022-11-07T09:47:20.775Z,23.17
2022-11-07T09:49:49.830Z,23.97
2022-11-07T09:52:20.287Z,24.27
2022-11-07T09:54:51.622Z,21.00
2022-11-07T09:57:20.211Z,15.53
2022-11-07T09:59:51.757Z,19.03
2022-11-07T10:02:20.543Z,12.33
2022-11-07T10:04:48.885Z,21.43
2022-11-07T10:07:21.610Z,13.67
2022-11-07T10:09:51.571Z,22.33
2022-11-07T10:12:27.810Z,17.50
2022-11-07T10:15:00.633Z,22.50
2022-11-07T10:17:32.955Z,17.60
2022-11-07T10:20:09.303Z,13.27
2022-11-07T10:22:46.995Z,13.03
2022-11-07T10:25:20.751Z,13.43
2022-11-07T10:27:52.017Z,23.17
2022-11-07T10:30:22.013Z,11.00
2022-11-07T10:32:55.845Z,16.57
2022-11-07T10:35:26.779Z,27.53
2022-11-07T10:37:58.039Z,10.50
2022-11-07T10:40:28.250Z,16.60
2022-11-07T10:42:56.868Z,14.60
2022-11-07T10:45:26.216Z,22.23
2022-11-07T10:47:58.413Z,16.47
2022-11-07T10:50:26.788Z,19.87
2022-11-07T10:52:55.696Z,15.97
2022-11-07T10:55:23.644Z,18.83
2022-11-07T10:57:54.225Z,20.80
2022-11-07T11:00:23.798Z,24.43
2022-11-07T11:02:53.358Z,15.27
2022-11-07T11:05:23.620Z,16.43
2022-11-07T11:07:51.641Z,16.57
2022-11-07T11:10:21.048Z,16.07
2022-11-07T11:12:49.324Z,17.13
2022-11-07T11:15:19.260Z,15.03
2022-11-07T11:17:47.191Z,16.90
2022-11-07T11:20:31.151Z,20.90
2022-11-07T11:22:59.716Z,16.50
2022-11-07T11:25:27.705Z,12.07
2022-11-07T11:27:58.020Z,15.13
2022-11-07T11:30:25.993Z,20.90
2022-11-07T11:32:54.608Z,18.33
2022-11-07T11:35:38.879Z,11.97
2022-11-07T11:38:12.803Z,14.37
2022-11-07T11:40:41.523Z,17.80
2022-11-07T11:43:18.365Z,20.03
2022-11-07T11:45:55.847Z,21.83
2022-11-07T11:48:25.631Z,20.50
2022-11-07T11:50:57.262Z,16.97
2022-11-07T11:53:25.359Z,20.93
2022-11-07T11:55:57.324Z,20.37
2022-11-07T11:58:32.865Z,21.80
2022-11-07T12:01:02.900Z,27.40
2022-11-07T12:03:45.211Z,19.80
2022-11-07T12:06:16.890Z,24.50
2022-11-07T12:09:17.119Z,22.53
2022-11-07T12:11:55.948Z,25.10
2022-11-07T12:14:43.195Z,30.33
2022-11-07T12:17:12.540Z,25.20
2022-11-07T12:19:44.025Z,31.43
2022-11-07T12:22:15.853Z,26.47
2022-11-07T12:24:46.945Z,36.53
2022-11-07T12:27:22.728Z,37.53
2022-11-07T12:30:04.669Z,31.47
2022-11-07T12:32:36.836Z,38.40
2022-11-07T12:35:12.741Z,37.23
2022-11-07T12:37:52.572Z,43.43
2022-11-07T12:40:30.231Z,35.93
2022-11-07T12:43:07.354Z,40.73
2022-11-07T12:45:44.427Z,28.47
2022-11-07T12:48:22.219Z,34.63
2022-11-07T12:50:52.725Z,29.57
2022-11-07T12:53:28.542Z,33.23
2022-11-07T12:55:58.555Z,31.20
2022-11-07T12:58:29.059Z,26.80
2022-11-07T13:00:56.959Z,27.10
2022-11-07T13:03:54.599Z,34.80
2022-11-07T13:06:25.183Z,32.23
2022-11-07T13:08:58.583Z,29.83
2022-11-07T13:11:30.206Z,32.90
2022-11-07T13:14:06.368Z,19.87
2022-11-07T13:16:35.759Z,37.17
2022-11-07T13:19:10.068Z,30.07
2022-11-07T13:21:42.447Z,28.87
2022-11-07T13:24:20.122Z,30.77
2022-11-07T13:26:48.355Z,29.43
2022-11-07T13:29:24.901Z,33.20
2022-11-07T13:32:05.552Z,31.10
2022-11-07T13:34:40.866Z,33.13
2022-11-07T13:37:10.054Z,28.27
2022-11-07T13:39:39.301Z,33.33
2022-11-07T13:42:07.219Z,32.30
2022-11-07T13:44:36.852Z,25.73
2022-11-07T13:47:05.768Z,28.50
2022-11-07T13:49:36.829Z,25.10
2022-11-07T13:52:10.264Z,28.30
2022-11-07T13:54:41.455Z,31.27
2022-11-07T13:57:12.578Z,20.90
2022-11-07T13:59:47.254Z,23.03
2022-11-07T14:02:21.509Z,24.73
2022-11-07T14:05:15.224Z,25.00
2022-11-07T14:07:43.149Z,19.70
2022-11-07T14:10:17.974Z,25.60
2022-11-07T14:12:45.931Z,31.53
2022-11-07T14:15:15.281Z,25.33
2022-11-07T14:17:43.352Z,26.87
2022-11-07T14:20:17.015Z,22.37
2022-11-07T14:22:53.118Z,28.20
2022-11-07T14:25:25.372Z,26.00
2022-11-07T14:27:53.319Z,21.10
2022-11-07T14:30:21.775Z,23.60
2022-11-07T14:32:50.909Z,25.73
2022-11-07T14:35:23.292Z,30.23
2022-11-07T14:37:52.607Z,24.67
2022-11-07T14:40:20.553Z,22.87
2022-11-07T14:42:49.818Z,26.00
2022-11-07T14:45:39.241Z,27.23
2022-11-07T14:48:07.360Z,23.10
2022-11-07T14:50:35.257Z,25.93
2022-11-07T14:53:04.111Z,27.90
2022-11-07T14:55:32.772Z,32.43
2022-11-07T14:58:02.776Z,30.20
2022-11-07T15:00:30.849Z,22.60
2022-11-07T15:02:59.366Z,20.53
2022-11-07T15:05:28.663Z,27.07
2022-11-07T15:07:57.256Z,33.07
2022-11-07T15:10:27.835Z,24.53
2022-11-07T15:12:56.736Z,27.40
2022-11-07T15:15:26.447Z,31.00
2022-11-07T15:17:59.017Z,26.20
2022-11-07T15:20:34.310Z,19.10
2022-11-07T15:23:03.168Z,25.67
2022-11-07T15:25:34.497Z,24.50
2022-11-07T15:28:13.863Z,31.13
2022-11-07T15:30:44.201Z,35.43
2022-11-07T15:33:13.008Z,22.53
2022-11-07T15:35:44.425Z,26.53
2022-11-07T15:38:18.315Z,28.43
2022-11-07T15:40:46.624Z,28.63
2022-11-07T15:43:14.546Z,27.13
2022-11-07T15:45:44.045Z,37.37
2022-11-07T15:48:15.991Z,35.30
2022-11-07T15:50:44.642Z,33.47
2022-11-07T15:53:17.018Z,38.93
2022-11-07T15:55:44.972Z,31.07
2022-11-07T15:58:15.053Z,25.77
2022-11-07T16:00:44.594Z,18.00
2022-11-07T16:03:15.423Z,26.97
2022-11-07T16:05:45.491Z,22.47
2022-11-07T16:08:15.508Z,36.00
2022-11-07T16:10:44.931Z,22.83
2022-11-07T16:13:12.836Z,18.97
2022-11-07T16:15:40.752Z,19.33
2022-11-07T16:18:16.138Z,38.17
2022-11-07T16:20:44.390Z,33.50
2022-11-07T16:23:12.484Z,26.03
2022-11-07T16:25:41.000Z,26.00
2022-11-07T16:28:19.190Z,23.60
2022-11-07T16:30:47.287Z,26.83
2022-11-07T16:33:16.661Z,26.87
2022-11-07T16:35:44.646Z,27.93
2022-11-07T16:38:14.138Z,44.43
2022-11-07T16:40:42.409Z,15.67
2022-11-07T16:43:10.310Z,33.00
2022-11-07T16:45:38.635Z,35.23
2022-11-07T16:48:06.934Z,15.17
2022-11-07T16:50:36.177Z,30.20
2022-11-07T16:53:04.582Z,27.97
2022-11-07T16:55:32.651Z,20.77
2022-11-07T16:58:00.643Z,19.50
2022-11-07T17:00:28.515Z,13.37
2022-11-07T17:03:07.128Z,27.93
2022-11-07T17:05:36.411Z,23.73
2022-11-07T17:08:05.321Z,26.83
2022-11-07T17:10:33.233Z,21.80
2022-11-07T17:13:01.100Z,23.60
2022-11-07T17:15:29.001Z,29.47
2022-11-07T17:18:00.598Z,23.80
2022-11-07T17:20:50.547Z,21.73
2022-11-07T17:23:25.248Z,26.47
2022-11-07T17:25:57.086Z,21.07
2022-11-07T17:28:24.996Z,25.07
2022-11-07T17:30:53.080Z,14.70
2022-11-07T17:33:21.035Z,30.10
2022-11-07T17:35:48.929Z,30.37
2022-11-07T17:38:17.674Z,30.97
2022-11-07T17:40:47.273Z,33.33
2022-11-07T17:43:15.167Z,27.23
2022-11-07T17:45:43.050Z,31.93
2022-11-07T17:48:11.103Z,21.40
2022-11-07T17:50:39.831Z,24.00
2022-11-07T17:53:07.696Z,30.83
2022-11-07T17:55:35.772Z,23.00
2022-11-07T17:58:05.053Z,19.43
2022-11-07T18:00:32.899Z,24.57
2022-11-07T18:03:00.943Z,23.87
2022-11-07T18:05:33.432Z,19.97
2022-11-07T18:08:02.587Z,19.40
2022-11-07T18:10:30.534Z,16.03
2022-11-07T18:12:58.810Z,26.33
2022-11-07T18:15:28.306Z,14.60
2022-11-07T18:17:56.229Z,21.53
2022-11-07T18:20:24.191Z,29.43
2022-11-07T18:22:52.127Z,31.70
2022-11-07T18:25:19.983Z,27.33
2022-11-07T18:27:47.911Z,19.80
2022-11-07T18:30:15.868Z,23.40
2022-11-07T18:32:45.349Z,33.83
2022-11-07T18:35:13.290Z,21.17
2022-11-07T18:37:41.362Z,23.77
2022-11-07T18:40:11.628Z,22.97
2022-11-07T18:42:39.546Z,25.37
2022-11-07T18:45:08.818Z,24.40
2022-11-07T18:47:36.941Z,27.23
2022-11-07T18:50:11.209Z,26.07
2022-11-07T18:52:39.168Z,21.57
2022-11-07T18:55:09.580Z,22.87
2022-11-07T18:57:39.235Z,16.13
2022-11-07T19:00:13.439Z,27.53
2022-11-07T19:02:44.901Z,18.73
2022-11-07T19:05:14.217Z,20.73
2022-11-07T19:07:44.828Z,24.63
2022-11-07T19:10:13.029Z,24.87
2022-11-07T19:12:40.964Z,17.63
2022-11-07T19:15:10.135Z,24.23
2022-11-07T19:17:41.921Z,23.70
2022-11-07T19:20:11.636Z,26.37
2022-11-07T19:22:41.197Z,29.77
2022-11-07T19:25:10.219Z,23.63
2022-11-07T19:27:38.279Z,23.07
2022-11-07T19:30:08.320Z,29.90
2022-11-07T19:32:36.439Z,15.60
2022-11-07T19:35:07.036Z,12.50
2022-11-07T19:37:35.127Z,17.50
2022-11-07T19:40:04.757Z,16.10
2022-11-07T19:42:32.648Z,17.30
2022-11-07T19:45:01.647Z,18.03
2022-11-07T19:47:30.819Z,19.57
2022-11-07T19:49:58.733Z,17.77
2022-11-07T19:52:26.818Z,17.53
2022-11-07T19:54:55.085Z,12.93
2022-11-07T19:57:24.350Z,12.73
2022-11-07T19:59:52.920Z,9.80
2022-11-07T20:02:41.516Z,17.03
2022-11-07T20:05:09.538Z,18.40
2022-11-07T20:07:37.447Z,14.47
2022-11-07T20:10:05.924Z,16.90
2022-11-07T20:12:35.707Z,14.07
2022-11-07T20:15:03.620Z,12.93
2022-11-07T20:17:31.521Z,15.73
2022-11-07T20:20:04.396Z,27.40
2022-11-07T20:22:34.312Z,11.63
2022-11-07T20:25:02.404Z,18.53
2022-11-07T20:27:30.336Z,19.30
2022-11-07T20:29:59.644Z,18.57
2022-11-07T20:32:27.779Z,18.23
2022-11-07T20:34:55.801Z,12.60
2022-11-07T20:37:23.927Z,15.33
2022-11-07T20:39:52.046Z,12.00
2022-11-07T20:42:19.986Z,23.03
2022-11-07T20:44:48.106Z,17.37
2022-11-07T20:47:17.406Z,8.10
2022-11-07T20:49:45.361Z,14.30
2022-11-07T20:52:13.377Z,17.40
2022-11-07T20:54:41.372Z,18.20
2022-11-07T20:57:09.567Z,17.07
2022-11-07T20:59:37.707Z,22.80
2022-11-07T21:02:05.653Z,13.27
2022-11-07T21:04:49.931Z,13.93
2022-11-07T21:07:23.761Z,11.23
2022-11-07T21:09:51.888Z,13.33
2022-11-07T21:12:19.888Z,14.67
2022-11-07T21:14:47.764Z,23.07
2022-11-07T21:17:16.128Z,17.57
2022-11-07T21:19:45.439Z,10.00
2022-11-07T21:22:13.304Z,16.97
2022-11-07T21:24:41.243Z,15.23
2022-11-07T21:27:09.131Z,19.87
2022-11-07T21:29:37.024Z,18.70
2022-11-07T21:32:06.816Z,23.03
2022-11-07T21:34:37.205Z,11.97
2022-11-07T21:37:09.089Z,14.10
2022-11-07T21:39:37.761Z,16.20
2022-11-07T21:42:05.829Z,16.57
2022-11-07T21:44:33.776Z,16.37
2022-11-07T21:47:01.732Z,15.13
2022-11-07T21:49:29.723Z,20.40
2022-11-07T21:51:57.894Z,21.23
2022-11-07T21:54:27.196Z,15.77
2022-11-07T21:56:55.214Z,19.07
2022-11-07T21:59:23.455Z,14.43
2022-11-07T22:01:51.515Z,16.13
2022-11-07T22:04:19.519Z,20.03
2022-11-07T22:06:47.495Z,12.20
2022-11-07T22:09:16.196Z,12.13
2022-11-07T22:11:45.477Z,13.73
2022-11-07T22:14:14.755Z,14.43
2022-11-07T22:16:42.834Z,13.90
2022-11-07T22:19:12.738Z,15.10
2022-11-07T22:21:41.175Z,10.03
2022-11-07T22:24:09.365Z,12.73
2022-11-07T22:26:37.439Z,11.53
2022-11-07T22:29:06.718Z,8.53
2022-11-07T22:31:34.640Z,7.70
2022-11-07T22:34:02.599Z,4.40
2022-11-07T22:36:30.666Z,8.00
2022-11-07T22:38:58.646Z,2.73
2022-11-07T22:41:27.381Z,4.27
2022-11-07T22:43:55.338Z,2.57
2022-11-07T22:46:25.641Z,3.97
2022-11-07T22:48:53.540Z,8.17
2022-11-07T22:51:23.002Z,7.30
2022-11-07T22:53:56.458Z,2.20
2022-11-07T22:56:24.564Z,6.93
2022-11-07T22:58:52.417Z,4.83
2022-11-07T23:01:21.442Z,2.53
2022-11-07T23:03:50.826Z,7.53
2022-11-07T23:06:18.895Z,3.53
2022-11-07T23:08:46.791Z,3.57
2022-11-07T23:14:04.791Z,3.50
2022-11-07T23:16:33.854Z,1.40
2022-11-07T23:19:03.827Z,3.77
2022-11-07T23:21:31.781Z,5.70
2022-11-07T23:24:00.606Z,7.33
2022-11-07T23:26:33.913Z,6.70
2022-11-07T23:29:07.537Z,3.80
2022-11-07T23:31:38.818Z,5.23
2022-11-07T23:34:08.052Z,6.80
2022-11-07T23:36:36.044Z,4.73
2022-11-07T23:39:05.837Z,2.83
2022-11-07T23:41:33.738Z,7.70
2022-11-07T23:44:01.803Z,3.83
2022-11-07T23:46:47.075Z,7.90
2022-11-07T23:49:33.579Z,6.90
2022-11-07T23:52:01.522Z,2.40
2022-11-07T23:54:46.663Z,2.93
2022-11-07T23:57:14.543Z,2.27
2022-11-07T23:59:59.933Z,1.23
